Home > Products > Valid Products > TAF

000
FTUS44 KOHX 182300
TAFCSV
TAF
KCSV 182325Z 1900/1924 01003KT P6SM SCT030 OVC040
     FM190600 01003KT 5SM BR SCT010 BKN020
     FM191400 03004KT P6SM SCT020 BKN035
     FM191600 05004KT P6SM SCT040=



000
FTUS44 KOHX 182300
TAFBNA
TAF
KBNA 182325Z 1900/1924 03003KT P6SM SCT030 OVC050
     FM190600 01003KT P6SM SCT015 BKN025
     FM191000 01004KT P6SM BKN035
     FM191500 03004KT P6SM BKN040=



000
FTUS44 KOHX 182300
TAFCKV
TAF
KCKV 182325Z 1900/1924 04003KT P6SM SCT015 OVC035
     FM190400 02003KT P6SM BKN025
     FM191200 03004KT P6SM BKN040=



000
FTUS44 KOHX 182200 AAA
TAFBNA
TAF AMD
KBNA 182201Z 1822/1918 01004KT P6SM SCT015 OVC050
     FM190400 01003KT P6SM SCT010 BKN025
     FM191300 03004KT P6SM BKN040=



000
FTUS44 KOHX 182000 AAA
TAFCSV
TAF AMD
KCSV 182050Z 1821/1918 34004KT P6SM BKN030 OVC050
     FM190600 01003KT 5SM BR BKN020
     FM191600 06004KT P6SM SCT040=



000
FTUS44 KOHX 181900 AAB
TAFCKV
TAF AMD
KCKV 181903Z 1819/1918 02003KT P6SM SCT010 OVC035
     FM190500 02003KT P6SM BKN025
     FM191200 03004KT P6SM BKN040=



000
FTUS44 KOHX 181800 AAA
TAFCKV
TAF AMD
KCKV 181840Z 1819/1918 02003KT P6SM BKN010 OVC035
     FM190500 02003KT P6SM BKN025
     FM191200 03004KT P6SM BKN040=



000
FTUS44 KOHX 181700
TAFCKV
TAF
KCKV 181740Z 1818/1918 02003KT P6SM SCT010 OVC035
     FM190500 02003KT P6SM BKN025
     FM191200 03004KT P6SM BKN040=



000
FTUS44 KOHX 181700
TAFCSV
TAF
KCSV 181740Z 1818/1918 34004KT P6SM OVC050
     FM190600 01003KT 5SM BR BKN020
     FM191600 06004KT P6SM SCT040=



000
FTUS44 KOHX 181700
TAFBNA
TAF
KBNA 181740Z 1818/1918 01004KT P6SM BKN010 OVC050
     FM190400 01003KT P6SM BKN025
     FM191300 03004KT P6SM BKN040=



000
FTUS44 KOHX 181600 AAE
TAFBNA
TAF AMD
KBNA 181635Z 1817/1912 06005KT 5SM -RA BR BKN007 OVC050
     FM181800 01004KT P6SM OVC050=



000
FTUS44 KOHX 181500 AAD
TAFBNA
TAF AMD
KBNA 181501Z 1815/1912 06005KT 5SM -RA BR BKN007 OVC050
     FM181600 01004KT P6SM OVC050=



000
FTUS44 KOHX 181400 AAA
TAFCKV
TAF AMD
KCKV 181459Z 1815/1912 03004KT 4SM BR OVC040
     FM181600 30003KT P6SM OVC040=



000
FTUS44 KOHX 181300 AAC
TAFBNA
TAF AMD
KBNA 181358Z 1814/1912 06005KT 5SM -RA BR BKN007 OVC050
     FM181500 01004KT P6SM OVC050=



000
FTUS44 KOHX 181300 AAC
TAFBNA
TAF AMD
KBNA 181358Z 1814/1912 06005KT 5SM -RA BR BKN007 OVC050
     FM181500 01004KT P6SM OVC050=



000
FTUS44 KOHX 181300 AAB
TAFBNA
TAF AMD
KBNA 181329Z 1813/1912 06005KT 6SM -RA BR BKN009 OVC050
     FM181500 01004KT P6SM OVC050=



000
FTUS44 KOHX 181300 AAB
TAFBNA
TAF AMD
KBNA 181329Z 1813/1912 06005KT 6SM -RA BR BKN009 OVC050
     FM181500 01004KT P6SM OVC050=



000
FTUS44 KOHX 181300 AAB
TAFCSV
TAF AMD
KCSV 181319Z 1813/1912 02004KT 4SM -FZRAPL BKN070 OVC080
     FM181500 34004KT P6SM OVC050=



000
FTUS44 KOHX 181300 AAB
TAFCSV
TAF AMD
KCSV 181319Z 1813/1912 02004KT 4SM -FZRAPL BKN070 OVC080
     FM181500 34004KT P6SM OVC050=



000
FTUS44 KOHX 181300 AAA
TAFCSV
TAF AMD
KCSV 181301Z 1813/1912 02004KT P6SM -FZRAPL BKN070 OVC080
     FM181500 34004KT P6SM OVC050=



000
FTUS44 KOHX 181300 AAA
TAFBNA
TAF AMD
KBNA 181301Z 1813/1912 06005KT 5SM -RA BR BKN060 BKN090 OVC120
     FM181500 01004KT P6SM OVC050=



000
FTUS44 KOHX 181300 AAA
TAFBNA
TAF AMD
KBNA 181301Z 1813/1912 06005KT 5SM -RA BR BKN060 BKN090 OVC120
     FM181500 01004KT P6SM OVC050=



000
FTUS44 KOHX 181300 AAA
TAFCSV
TAF AMD
KCSV 181301Z 1813/1912 02004KT P6SM -FZRAPL BKN070 OVC080
     FM181500 34004KT P6SM OVC050=



000
FTUS44 KOHX 181100
TAFCSV
TAF
KCSV 181126Z 1812/1912 02004KT P6SM -FZRAPL OVC050
     FM181500 34004KT P6SM OVC050=



000
FTUS44 KOHX 181100
TAFCKV
TAF
KCKV 181126Z 1812/1912 03004KT P6SM -FZRAPL SCT009 OVC050
     FM181400 03004KT P6SM OVC050=



000
FTUS44 KOHX 181100
TAFBNA
TAF
KBNA 181126Z 1812/1912 06005KT 6SM -RA BR OVC080
     FM181500 01004KT P6SM OVC050=



000
FTUS44 KOHX 181100 AAA
TAFBNA
TAF AMD
KBNA 181100Z 1811/1906 06005KT 6SM -RA BR OVC080
     FM181500 01004KT P6SM OVC050=



000
FTUS44 KOHX 181100 AAA
TAFBNA
TAF AMD
KBNA 181100Z 1811/1906 06005KT 6SM -RA BR OVC080
     FM181500 01004KT P6SM OVC050=



000
FTUS44 KOHX 181000 AAA
TAFCSV
TAF AMD
KCSV 181031Z 1811/1906 02004KT P6SM -FZRAPL OVC050
     FM181500 34004KT P6SM OVC050=



000
FTUS44 KOHX 180700 AAA
TAFCKV
TAF AMD
KCKV 180704Z 1807/1906 03004KT P6SM -FZRAPL OVC050
     FM181400 08002KT P6SM OVC020=



000
FTUS44 KOHX 180500
TAFBNA
TAF
KBNA 180526Z 1806/1906 34005KT P6SM BKN100
     FM180800 02004KT P6SM -FZRAPL SCT030 OVC050
     FM181600 05003KT P6SM OVC020=



000
FTUS44 KOHX 180500
TAFCKV
TAF
KCKV 180526Z 1806/1906 VRB04KT P6SM BKN080
     FM180700 03004KT P6SM -FZRAPL SCT030 OVC050
     FM181400 08002KT P6SM OVC020=



000
FTUS44 KOHX 180500
TAFCSV
TAF
KCSV 180526Z 1806/1906 30004KT P6SM BKN100
     FM181200 08003KT 6SM -FZRA SCT010 OVC030
     FM181500 04002KT 6SM -RA SCT010 OVC025
     FM181900 VRB03KT P6SM OVC020=



000
FTUS44 KOHX 172300
TAFBNA
TAF
KBNA 172327Z 1800/1824 34005KT P6SM OVC100
     FM181100 02004KT P6SM -RAPL SCT020 OVC040
     FM181800 06002KT P6SM OVC020=



000
FTUS44 KOHX 172300
TAFCKV
TAF
KCKV 172327Z 1800/1824 34005KT P6SM BKN100
     FM180900 03004KT P6SM -RAPL BKN030 OVC080
     FM181500 08002KT P6SM OVC020=



000
FTUS44 KOHX 172300
TAFCSV
TAF
KCSV 172327Z 1800/1824 30004KT P6SM BKN100
     FM181300 08003KT P6SM -RA SCT010 OVC030
     FM182000 VRB03KT P6SM OVC020=



000
FTUS44 KOHX 171900 AAA
TAFCKV
TAF AMD
KCKV 171916Z 1719/1818 34006KT P6SM SCT030 BKN100
     FM180800 03004KT P6SM -RAPL BKN030 OVC080
     FM181200 08002KT P6SM OVC020=



000
FTUS44 KOHX 171900 AAA
TAFCSV
TAF AMD
KCSV 171915Z 1719/1818 30006KT P6SM OVC012
     FM172000 34005KT P6SM SCT020 BKN080
     FM181300 01003KT P6SM -RA SCT010 OVC030=



000
FTUS44 KOHX 171700 RRA
TAFCKV
TAF
KCKV 171743Z 1718/1818 34006KT P6SM OVC025
     FM172100 35005KT P6SM SCT030 BKN100
     FM180800 03004KT P6SM -RAPL BKN030 OVC080
     FM181200 08002KT P6SM OVC020=



000
FTUS44 KOHX 171700 RRA
TAFBNA
TAF
KBNA 171743Z 1718/1818 34006KT P6SM SCT015 OVC025
     FM172000 35005KT P6SM SCT030 BKN080
     FM181100 02004KT P6SM -RAPL SCT020 OVC040
     FM181600 36002KT P6SM RA OVC020=



000
FTUS44 KOHX 171700 RRA
TAFCSV
TAF
KCSV 171743Z 1718/1818 30006KT P6SM OVC007
     FM172100 34005KT P6SM SCT020 BKN080
     FM181300 01003KT P6SM -RA SCT010 OVC030=



000
FTUS44 KOHX 171600 AAB
TAFCSV
TAF AMD
KCSV 171628Z 1716/1812 30006KT P6SM OVC007
     FM172100 34005KT P6SM SCT020 BKN250
     FM181000 01003KT P6SM OVC100=



000
FTUS44 KOHX 171300 AAA
TAFCSV
TAF AMD
KCSV 171336Z 1714/1812 32006KT P6SM OVC007
     FM171600 30006KT P6SM SCT009 OVC015
     FM172100 34005KT P6SM SCT020 BKN250
     FM181000 01003KT P6SM OVC100=



000
FTUS44 KOHX 171300 AAA
TAFCKV
TAF AMD
KCKV 171335Z 1714/1812 33009KT P6SM OVC015
     FM171700 34006KT P6SM OVC025
     FM172100 35005KT P6SM SCT030 BKN250
     FM180800 03004KT P6SM -RAPL OVC080=



000
FTUS44 KOHX 171100
TAFCKV
TAF
KCKV 171130Z 1712/1812 34006KT P6SM OVC025
     FM172000 35005KT P6SM SCT030 BKN250
     FM180800 03004KT P6SM -RAPL OVC080=



000
FTUS44 KOHX 171100
TAFBNA
TAF
KBNA 171130Z 1712/1812 34006KT P6SM SCT015 OVC025
     FM172000 35005KT P6SM SCT030 BKN250
     FM180900 02004KT P6SM -RAPL OVC080=



000
FTUS44 KOHX 171100
TAFCSV
TAF
KCSV 171130Z 1712/1812 30006KT P6SM SCT009 OVC015
     FM172000 34005KT P6SM SCT020 BKN250
     FM181000 01003KT P6SM OVC100=



000
FTUS44 KOHX 170700 AAA
TAFCSV
TAF AMD
KCSV 170729Z 1707/1806 30007KT P6SM SCT009 OVC015
      TEMPO 1708/1712 3SM -DZ BR OVC007
     FM172000 34005KT P6SM SCT020=



000
FTUS44 KOHX 170700 AAA
TAFCSV
TAF AMD
KCSV 170729Z 1707/1806 30007KT P6SM SCT009 OVC015
      TEMPO 1708/1712 3SM -DZ BR OVC007
     FM172000 34005KT P6SM SCT020=



000
FTUS44 KOHX 170700 AAA
TAFCKV
TAF AMD
KCKV 170727Z 1707/1806 34009KT P6SM OVC015
     FM171300 34005KT P6SM OVC025
     FM171800 34006KT P6SM SCT030 BKN250=



000
FTUS44 KOHX 170700 AAA
TAFCKV
TAF AMD
KCKV 170727Z 1707/1806 34009KT P6SM OVC015
     FM171300 34005KT P6SM OVC025
     FM171800 34006KT P6SM SCT030 BKN250=



000
FTUS44 KOHX 170700 AAA
TAFBNA
TAF AMD
KBNA 170725Z 1707/1806 33007KT P6SM SCT006 OVC015
      TEMPO 1707/1710 5SM -DZ BR BKN006 OVC015
     FM171200 33005KT P6SM OVC025
     FM171800 34005KT P6SM SCT030 BKN250=



000
FTUS44 KOHX 170700 AAA
TAFBNA
TAF AMD
KBNA 170725Z 1707/1806 33007KT P6SM SCT006 OVC015
      TEMPO 1707/1710 5SM -DZ BR BKN006 OVC015
     FM171200 33005KT P6SM OVC025
     FM171800 34005KT P6SM SCT030 BKN250=



000
FTUS44 KOHX 170500
TAFCKV
TAF
KCKV 170529Z 1706/1806 34009KT P6SM OVC025
     FM171400 33006KT P6SM SCT020=



000
FTUS44 KOHX 170500
TAFCSV
TAF
KCSV 170529Z 1706/1806 28007KT P6SM OVC015
     FM171700 34005KT P6SM SCT020=



000
FTUS44 KOHX 170500
TAFBNA
TAF
KBNA 170529Z 1706/1806 29005KT P6SM OVC025
     FM171500 33005KT P6SM SCT030 SCT050=



000
FTUS44 KOHX 162300
TAFCKV
TAF
KCKV 162324Z 1700/1724 28010KT P6SM OVC019
     FM171200 33005KT P6SM SCT020=



000
FTUS44 KOHX 162300
TAFBNA
TAF
KBNA 162324Z 1700/1724 28008KT P6SM OVC025
     FM171100 32005KT P6SM SCT025 OVC100
     FM171400 33005KT P6SM SCT050=



000
FTUS44 KOHX 162300
TAFCSV
TAF
KCSV 162324Z 1700/1724 28009KT P6SM OVC015
     FM171300 32005KT P6SM BKN020
     FM171700 34005KT P6SM SCT020=



000
FTUS44 KOHX 161900 AAA
TAFCSV
TAF AMD
KCSV 161919Z 1619/1718 28008KT P6SM SCT008 OVC015
     FM171300 32005KT P6SM BKN020=



000
FTUS44 KOHX 161700
TAFBNA
TAF
KBNA 161740Z 1618/1718 28010G18KT P6SM BKN025 BKN040
     FM170000 31006KT P6SM OVC020
     FM171400 33003KT P6SM SCT020=



000
FTUS44 KOHX 161700
TAFCKV
TAF
KCKV 161740Z 1618/1718 27010G18KT P6SM OVC025
     FM162300 30006KT P6SM OVC020
     FM171200 32003KT P6SM SCT020=



000
FTUS44 KOHX 161700
TAFCSV
TAF
KCSV 161740Z 1618/1718 25010KT P6SM BKN008 OVC015
     FM162300 28005KT P6SM OVC010
     FM171300 32005KT P6SM BKN020=



000
FTUS44 KOHX 161600 AAC
TAFCSV
TAF AMD
KCSV 161636Z 1617/1712 25010KT P6SM OVC015
     FM161900 25010KT P6SM BKN025 OVC035
     FM162300 27005KT P6SM OVC015=



000
FTUS44 KOHX 161500 AAB
TAFCSV
TAF AMD
KCSV 161533Z 1616/1712 25010KT P6SM BKN015 OVC025
     FM162300 27005KT P6SM OVC015=



000
FTUS44 KOHX 161500 AAB
TAFBNA
TAF AMD
KBNA 161522Z 1615/1712 29009G15KT P6SM BKN025 OVC035
     FM161700 29011KT P6SM BKN035 BKN040
     FM170000 31006KT P6SM OVC025=



000
FTUS44 KOHX 161400 AAA
TAFBNA
TAF AMD
KBNA 161449Z 1615/1712 29010G18KT P6SM BKN025 OVC035
     FM161800 29011KT P6SM BKN035 BKN050
     FM170000 31006KT P6SM OVC025=



000
FTUS44 KOHX 161400 AAA
TAFCSV
TAF AMD
KCSV 161433Z 1615/1712 25010KT P6SM BKN015 OVC035
     FM162300 27005KT P6SM OVC015=



000
FTUS44 KOHX 161100
TAFBNA
TAF
KBNA 161120Z 1612/1712 29010KT P6SM OVC025
     FM162300 31006KT P6SM OVC025=



000
FTUS44 KOHX 161100
TAFCSV
TAF
KCSV 161120Z 1612/1712 25010KT P6SM SCT008 OVC015
     FM162300 27005KT P6SM OVC015=



000
FTUS44 KOHX 161100
TAFCKV
TAF
KCKV 161120Z 1612/1712 27010G18KT P6SM OVC025
     FM162300 30006KT P6SM BKN025=



000
FTUS44 KOHX 161000 AAB
TAFCKV
TAF AMD
KCKV 161032Z 1611/1706 27010G18KT P6SM OVC025
     FM162300 30008KT P6SM BKN025=



000
FTUS44 KOHX 160800 AAB
TAFCSV
TAF AMD
KCSV 160842Z 1609/1706 18008KT P6SM SCT008 OVC012
      TEMPO 1609/1613 4SM BR BKN006
     FM161500 25008G18KT P6SM OVC015=



000
FTUS44 KOHX 160700 AAA
TAFCSV
TAF AMD
KCSV 160756Z 1608/1706 18008KT P6SM BKN040
      TEMPO 1611/1615 4SM BR BKN015
     FM161500 25008G18KT P6SM OVC015=



000
FTUS44 KOHX 160700 AAA
TAFCKV
TAF AMD
KCKV 160754Z 1608/1706 28009KT P6SM SCT015 BKN040
     FM161300 26010G17KT P6SM OVC025=



000
FTUS44 KOHX 160700 AAA
TAFBNA
TAF AMD
KBNA 160752Z 1608/1706 25008KT P6SM SCT025 OVC040
     FM161400 26010G17KT P6SM OVC025=



000
FTUS44 KOHX 160500
TAFCSV
TAF
KCSV 160528Z 1606/1706 18007G15KT 6SM BR VCSH OVC012
     FM160900 22007KT 6SM BR OVC010
     FM161400 25007KT P6SM OVC012
     FM161500 26009G17KT P6SM OVC012=



000
FTUS44 KOHX 160500
TAFCKV
TAF
KCKV 160528Z 1606/1706 20009KT P6SM SCT013 OVC025
     FM160800 25010KT 6SM BR OVC012
     FM161400 26010G17KT P6SM OVC015=



000
FTUS44 KOHX 160500
TAFBNA
TAF
KBNA 160528Z 1606/1706 18007KT P6SM VCSH SCT015 BKN035
     FM160800 22008KT P6SM BKN025
     FM161100 25009KT P6SM OVC015
     FM161500 26010G17KT P6SM OVC015=



000
FTUS44 KOHX 160400 AAB
TAFCSV
TAF AMD
KCSV 160429Z 1604/1624 17010G17KT 6SM BR VCSH OVC012
      TEMPO 1604/1607 19007KT 3SM -TSRA OVC020CB
     FM161000 22007KT 6SM BR OVC010
     FM161400 27007KT 6SM BR VCSH OVC008=



000
FTUS44 KOHX 160300 AAA
TAFCSV
TAF AMD
KCSV 160300Z 1603/1624 18008G14KT 5SM BR VCSH OVC009
      TEMPO 1604/1607 19007KT 3SM -SHRA OVC006
     FM161000 22007KT 6SM BR OVC010
     FM161400 27007KT 6SM BR VCSH OVC008=



    US Dept of Commerce
    National Oceanic and Atmospheric Administration
    National Weather Service
    1325 East West Highway
    Silver Spring, MD 20910
    Page Author: NWS Internet Services Team
Disclaimer
Information Quality
Credits
Glossary
Privacy Policy
Freedom of Information Act (FOIA)
About Us
Career Opportunities